Thursday, September 20, 2018, 6:53 PM EDT
Back to Local

KRME, Griffiss Airfield

Location: Rome, NY, United States Lat: 43.233
Local Time: 6:53 PM EDT (22:53 GMT) Lon: -75.4
Time Zone: US/Eastern Elev: 505 ft

Show me the last for .
Show Decoded

2018-09-20 17:53 METAR KRME 202153Z 09005KT 10SM CLR 21/16 A3018 RMK AO2 SLP217 T02060156 =
2018-09-20 16:53 METAR KRME 202053Z 07003KT 10SM FEW120 21/15 A3018 RMK AO2 SLP218 T02110150
                 56008 =
2018-09-20 15:53 METAR KRME 201953Z 02003KT 10SM FEW120 22/14 A3019 RMK AO2 SLP221 T02170144 =
2018-09-20 14:53 METAR KRME 201853Z VRB04KT 10SM CLR 21/14 A3019 RMK AO2 SLP220 T02110139 =
2018-09-20 13:53 METAR KRME 201753Z 03004KT 10SM SCT032 21/14 A3020 RMK AO2 SLP226 T02060139
                 10211 20122 58015 =
2018-09-20 12:53 METAR KRME 201653Z 18004KT 10SM FEW029 19/13 A3022 RMK AO2 SLP232 T01940133 =
2018-09-20 11:53 METAR KRME 201553Z 14008KT 10SM CLR 19/14 A3024 RMK AO2 SLP237 T01890139 =
2018-09-20 11:09 METAR KRME 201509Z 15008KT 10SM SCT019 18/13 A3025 RMK AO2 T01780133 =
2018-09-20 11:02 METAR KRME 201502Z 13008KT 10SM BKN019 18/14 A3025 RMK AO2 T01830139 =
2018-09-20 10:53 METAR KRME 201453Z 11007KT 10SM SCT017 17/14 A3025 RMK AO2 SLP241 T01720139
                 53004 =
2018-09-20 09:53 METAR KRME 201353Z 09007KT 10SM OVC032 16/13 A3025 RMK AO2 SLP241 T01560128 =
2018-09-20 09:13 METAR KRME 201313Z 11007KT 10SM SCT021 OVC032 14/13 A3024 RMK AO2 T01440133 =
2018-09-20 09:02 METAR KRME 201302Z 11007KT 10SM BKN021 OVC033 14/13 A3024 RMK AO2 T01390133 =
2018-09-20 08:53 METAR KRME 201253Z 11005KT 10SM SCT021 OVC033 13/13 A3023 RMK AO2 SLP234
                 T01330128 =
2018-09-20 07:53 METAR KRME 201153Z 00000KT 10SM FEW022 OVC032 12/12 A3024 RMK AO2 SLP237
                 T01220117 10122 20094 53028 =
2018-09-20 06:53 METAR KRME 201053Z 00000KT 10SM FEW019 OVC031 12/11 A3020 RMK AO2 SLP225
                 T01170106 =
2018-09-20 05:53 METAR KRME 200953Z AUTO 00000KT 10SM OVC028 11/10 A3018 RMK AO2 SLP218 T01060100
                 =
2018-09-20 05:06 METAR KRME 200906Z AUTO 33003KT 10SM BKN029 09/09 A3016 RMK AO2 T00940094 =
2018-09-20 04:53 METAR KRME 200853Z AUTO 00000KT 10SM FEW028 10/09 A3015 RMK AO2 SLP208 T01000094
                 55000 =
2018-09-20 03:53 METAR KRME 200753Z AUTO 11004KT 10SM CLR 10/10 A3014 RMK AO2 SLP205 T01000100 =
2018-09-20 02:53 METAR KRME 200653Z AUTO 09004KT 10SM CLR 10/10 A3015 RMK AO2 SLP209 T01000100 =
2018-09-20 01:53 METAR KRME 200553Z AUTO 00000KT 10SM CLR 11/10 A3015 RMK AO2 SLP209 T01060100
                 10161 20100 51008 =
2018-09-20 00:53 METAR KRME 200453Z AUTO 00000KT 10SM CLR 11/11 A3015 RMK AO2 SLP208 T01110111
                 402280111 =
2018-09-19 23:53 METAR KRME 200353Z AUTO 00000KT 10SM CLR 12/11 A3014 RMK AO2 SLP203 T01220111 =
2018-09-19 22:53 METAR KRME 200253Z AUTO 00000KT 10SM CLR 13/11 A3013 RMK AO2 SLP199 T01330111
                 51010 =
2018-09-19 21:53 METAR KRME 200153Z AUTO 31003KT 10SM CLR 14/11 A3012 RMK AO2 SLP198 T01440111 =
2018-09-19 20:53 METAR KRME 200053Z 33004KT 10SM CLR 14/12 A3011 RMK AO2 SLP195 T01440117 =
2018-09-19 19:53 METAR KRME 192353Z 32007KT 10SM BKN036 16/12 A3010 RMK AO2 SLP190 T01610122
                 10228 20161 53025 =

Support USWX by starting your Amazon purchase here.